Honolulu, HI

07:09 PM HST am 25. Oktober 2014 (GMT -1000)
Pacific Heights | Change Station
CLOSE
Current Station
Persönliche Wetterstationen
Location: Honolulu, HI
Höhe: 528 ft
Wetterstationen in der Umgebung

Höhe 528 ft 21.33 °N, 157.84 °W | Updated 0 second ago

Partly Cloudy
Teils Wolkig
77.4 °F
gefühlte 79 °F
N
2.0
Wind Wechselnd Wind aus Nordost
Gusts 4.0 mph

Heute
Max. -- | schwach -- °F
--% Regenrisiko
Gestern
Max. -- | schwach -- °F
Precip. -- inch
6:31 AM 5:59 PM
Erstes Viertel, 6% visible
Druck 29.99 inch
Sichtweite 10.0 Meilen
Wolken Few 2700 ft
Hitzeindex 79 °F
Taupunkt 68 °F
Feuchtigkeit 74%
Regen 0.00 inch
Schneehöhe Nicht verfügbar..
UV 0 von 12
Pollen Nicht verfügbar..
PM2.5 Gut
Flu Activity Sporadic
METAR PHNL 260453Z 07009KT 10SM FEW027 27/21 A2999 RMK AO2 SLP155 T02670211

More Conditions Fewer Conditions

Druck 29.99 inch
Sichtweite 10.0 Meilen
Wolken Few 2700 ft
Hitzeindex 79 °F
Taupunkt 68 °F
Feuchtigkeit 74%
Regen 0.00 inch
Schneehöhe Nicht verfügbar..
UV 0 von 12
Pollen Nicht verfügbar..
PM2.5 Gut
Flu Activity Sporadic
METAR PHNL 260453Z 07009KT 10SM FEW027 27/21 A2999 RMK AO2 SLP155 T02670211

More Conditions Fewer Conditions

10-Day Weather Forecast

Almanac

Astronomie

Oct. 25, 2014 Aufgang Untergang
Genaue Zeit 06:31 HST 17:59 HST
Bürgerliche Dämmerung 06:08 HST 18:21 HST
Nautische Dämmerung 05:42 HST 18:48 HST
Astronomische Dämmerung 05:16 HST 19:14 HST
Mond 08:11 HST (10/25) 19:42 HST (10/25)
Länge des sichtbaren Lichts 12h 13m
Tageslänge
11h 28m
Tomorrow will be 1m 6s shorter.
Erstes Viertel, 6% of the Moon is Illuminated
Okt 26
Erstes Viertel
Okt 30
Erstes Viertel
Nov 6
Vollmond
Nov 14
Letztes Viertel
Nov 22
Neu

Gestrige Extrema

State Highs State Lows

Community

WunderPhotos

Upload Photos

1,765,111 Fotos hochgeladen!

Nearby

Luftqualität

  Luftqualität LQ Index Schadstoff
Gestern Gut
PM10
Aktuell Gut
PM2.5
Samstag Gut
OZONE
Sonntag Gut
OZONE

Schneehöhe

Station Depth Höhe
Kein Neuschnee gemeldet.

Erdbebenaktivität

Stadt Distance Mag. Time & Date
No recent earthquake activity has been reported nearby.
Minimum magnitude displayed is 2.5.

küstennahe Wassertemperaturen

Ort Temperatur
Kein Stationsbericht

Wetterstationen in der Umgebung